Time;durP1;ratioP1;P1;durP2;ratioP2;P2;SDS_P1;SDS_P2;PMS_P1;PMS_P2;Temp;Humidity;BMP_temperature;BMP_pressure;BME280_temperature;BME280_humidity;BME280_pressure;Samples;Min_cycle;Max_cycle;Signal;HPM_P1;HPM_P2
2024/01/17 00:03:06;;;;;;;90.60;32.20;;;;;;;-3.17;71.53;99412.04;130124;1272;106789;-73
2024/01/17 00:06:12;;;;;;;62.80;25.80;;;;;;;-3.18;71.66;99403.55;130153;1261;106620;-74
2024/01/17 00:09:18;;;;;;;80.70;33.70;;;;;;;-3.19;71.49;99405.55;130170;1261;107683;-73
2024/01/17 00:12:24;;;;;;;85.70;30.90;;;;;;;-3.20;71.79;99397.44;130135;1262;108708;-74
2024/01/17 00:15:30;;;;;;;75.70;30.00;;;;;;;-3.22;71.63;99395.82;130112;1261;107696;-73
2024/01/17 00:18:36;;;;;;;53.40;24.10;;;;;;;-3.27;71.66;99402.54;130066;1265;108354;-73
2024/01/17 00:21:42;;;;;;;50.80;24.10;;;;;;;-3.31;71.91;99403.61;130085;1262;106950;-73
2024/01/17 00:24:49;;;;;;;53.50;23.60;;;;;;;-3.38;72.00;99401.73;130087;1263;107534;-73
2024/01/17 00:27:54;;;;;;;55.30;25.60;;;;;;;-3.41;72.10;99403.46;130085;1264;106670;-74
2024/01/17 00:31:00;;;;;;;57.10;24.80;;;;;;;-3.43;71.91;99408.45;130070;1264;107442;-73
2024/01/17 00:34:05;;;;;;;54.40;23.70;;;;;;;-3.45;72.27;99410.48;130063;1264;106746;-74
2024/01/17 00:37:11;;;;;;;52.20;23.80;;;;;;;-3.46;71.87;99412.99;130098;1261;107623;-74
2024/01/17 00:40:16;;;;;;;52.50;22.90;;;;;;;-3.49;72.06;99422.88;130124;1264;108871;-74
2024/01/17 00:43:22;;;;;;;65.30;27.70;;;;;;;-3.49;72.40;99428.79;130096;1262;108596;-74
2024/01/17 00:46:27;;;;;;;46.70;21.30;;;;;;;-3.46;72.45;99438.39;130080;1260;107723;-74
2024/01/17 00:49:33;;;;;;;57.30;26.80;;;;;;;-3.41;72.62;99434.79;130075;1263;108758;-72
2024/01/17 00:52:39;;;;;;;49.70;23.60;;;;;;;-3.34;72.67;99433.52;130081;1262;108483;-74
2024/01/17 00:55:44;;;;;;;44.10;19.00;;;;;;;-3.23;72.95;99430.44;130156;1275;107774;-73
2024/01/17 00:58:50;;;;;;;48.10;23.00;;;;;;;-3.09;72.88;99431.42;130113;1263;106301;-73
2024/01/17 01:01:55;;;;;;;59.10;27.30;;;;;;;-3.02;72.81;99427.52;130110;1264;107145;-73
2024/01/17 01:05:19;;;;;;;52.90;25.40;;;;;;;-2.95;72.56;99423.67;130098;1262;108992;-74
2024/01/17 01:08:24;;;;;;;52.10;24.80;;;;;;;-2.90;72.81;99419.71;130094;1276;106981;-73
2024/01/17 01:11:33;;;;;;;49.40;23.10;;;;;;;-2.86;72.74;99415.85;130126;1261;106588;-74
2024/01/17 01:14:38;;;;;;;45.30;21.50;;;;;;;-2.85;72.61;99417.35;130108;1264;106484;-73
2024/01/17 01:17:44;;;;;;;45.60;21.70;;;;;;;-2.86;72.62;99418.09;129907;1263;107949;-72
2024/01/17 01:20:50;;;;;;;44.90;21.00;;;;;;;-2.88;72.86;99419.45;130089;1264;108600;-72
2024/01/17 01:23:56;;;;;;;45.50;21.60;;;;;;;-2.91;72.78;99418.91;129942;1264;107647;-75
2024/01/17 01:27:01;;;;;;;50.20;21.80;;;;;;;-2.94;72.74;99417.89;130212;1264;106222;-73
2024/01/17 01:30:09;;;;;;;43.80;22.50;;;;;;;-3.01;72.63;99417.39;130062;1260;107627;-73
2024/01/17 01:33:15;;;;;;;49.20;22.90;;;;;;;-3.06;72.53;99409.01;130130;1262;106605;-73
2024/01/17 01:36:20;;;;;;;48.00;23.60;;;;;;;-3.14;72.35;99407.35;130109;1261;108752;-73
2024/01/17 01:39:26;;;;;;;43.80;21.60;;;;;;;-3.20;72.79;99403.52;130131;1264;108672;-73
2024/01/17 01:42:31;;;;;;;41.20;20.20;;;;;;;-3.25;73.11;99400.63;130086;1262;107083;-73
2024/01/17 01:45:37;;;;;;;38.40;19.00;;;;;;;-3.25;73.16;99396.50;130114;1264;106966;-73
2024/01/17 01:48:44;;;;;;;40.80;19.70;;;;;;;-3.26;73.31;99394.31;130085;1264;106645;-73
2024/01/17 01:51:52;;;;;;;38.70;18.40;;;;;;;-3.22;73.31;99386.09;130114;1264;107818;-73
2024/01/17 01:54:58;;;;;;;39.90;18.40;;;;;;;-3.21;73.44;99382.34;130165;1263;108544;-73
2024/01/17 01:58:04;;;;;;;39.30;18.20;;;;;;;-3.19;73.30;99384.48;130106;1263;105574;-73
2024/01/17 02:01:10;;;;;;;34.30;17.10;;;;;;;-3.18;73.30;99380.22;130097;1263;107977;-73
2024/01/17 02:04:17;;;;;;;40.10;18.80;;;;;;;-3.17;72.99;99374.45;130088;1262;107701;-73
2024/01/17 02:07:24;;;;;;;37.80;18.10;;;;;;;-3.22;73.03;99374.75;130073;1262;108780;-73
2024/01/17 02:10:30;;;;;;;39.40;18.40;;;;;;;-3.28;72.99;99374.75;130170;1264;107259;-72
2024/01/17 02:13:36;;;;;;;40.10;18.30;;;;;;;-3.35;72.86;99373.38;130097;1262;107504;-73
2024/01/17 02:16:45;;;;;;;39.90;17.90;;;;;;;-3.41;72.84;99372.89;130110;1261;108643;-73
2024/01/17 02:19:50;;;;;;;38.00;17.50;;;;;;;-3.49;72.80;99373.48;130102;1264;106506;-73
2024/01/17 02:22:56;;;;;;;34.10;17.30;;;;;;;-3.58;72.84;99368.08;130093;1262;108765;-73
2024/01/17 02:26:02;;;;;;;37.00;17.70;;;;;;;-3.64;73.01;99369.47;130097;1264;106749;-73
2024/01/17 02:29:07;;;;;;;36.50;16.80;;;;;;;-3.70;72.77;99374.83;130163;1261;109533;-73
2024/01/17 02:32:13;;;;;;;37.10;17.70;;;;;;;-3.75;72.96;99374.57;130077;1264;108654;-73
2024/01/17 02:35:20;;;;;;;34.50;16.10;;;;;;;-3.79;73.03;99370.60;130072;1262;108760;-73
2024/01/17 02:38:25;;;;;;;37.90;17.60;;;;;;;-3.84;72.81;99367.43;130132;1264;107523;-73
2024/01/17 02:41:31;;;;;;;34.00;15.90;;;;;;;-3.93;72.75;99370.33;130175;1264;107206;-72
2024/01/17 02:44:36;;;;;;;36.70;17.40;;;;;;;-4.01;72.83;99369.02;130097;1265;107153;-73
2024/01/17 02:47:42;;;;;;;38.30;17.50;;;;;;;-4.08;72.82;99366.48;130066;1261;108423;-73
2024/01/17 02:50:48;;;;;;;37.00;17.60;;;;;;;-4.13;72.77;99366.57;130121;1264;107605;-73
2024/01/17 02:53:53;;;;;;;37.70;17.90;;;;;;;-4.19;72.85;99372.61;130092;1262;107253;-73
2024/01/17 02:56:59;;;;;;;38.20;16.90;;;;;;;-4.28;72.96;99374.66;130126;1262;108335;-73
2024/01/17 03:00:06;;;;;;;38.20;17.40;;;;;;;-4.35;73.09;99375.20;130115;1264;107567;-73
2024/01/17 03:03:12;;;;;;;36.30;16.30;;;;;;;-4.45;73.00;99376.54;130129;1261;108555;-73
2024/01/17 03:06:18;;;;;;;38.00;17.40;;;;;;;-4.51;73.13;99377.59;130082;1265;108737;-73
2024/01/17 03:09:24;;;;;;;37.30;16.70;;;;;;;-4.55;73.16;99374.67;130068;1265;106430;-73
2024/01/17 03:12:30;;;;;;;35.10;15.80;;;;;;;-4.54;73.24;99370.28;130071;1265;108970;-73
2024/01/17 03:15:35;;;;;;;34.20;14.40;;;;;;;-4.50;73.29;99365.05;130100;1265;107733;-73
2024/01/17 03:18:41;;;;;;;37.00;16.60;;;;;;;-4.48;73.11;99366.31;130079;1261;107818;-73
2024/01/17 03:21:50;;;;;;;37.20;17.30;;;;;;;-4.48;73.15;99366.46;130126;1262;106671;-74
2024/01/17 03:24:56;;;;;;;72.30;23.50;;;;;;;-4.51;73.09;99364.73;130114;1262;106578;-74
2024/01/17 03:28:01;;;;;;;58.30;22.20;;;;;;;-4.54;72.98;99366.08;130131;1262;106691;-73
2024/01/17 03:31:07;;;;;;;39.40;18.10;;;;;;;-4.58;73.05;99366.85;130096;1262;108385;-73
2024/01/17 03:34:13;;;;;;;37.50;18.00;;;;;;;-4.62;73.06;99362.71;130120;1264;107161;-74
2024/01/17 03:37:19;;;;;;;35.70;17.30;;;;;;;-4.68;73.12;99360.43;129988;1264;149188;-73
2024/01/17 03:40:24;;;;;;;37.80;16.80;;;;;;;-4.73;73.00;99367.06;130136;1265;107807;-73
2024/01/17 03:43:30;;;;;;;40.50;17.60;;;;;;;-4.76;73.02;99368.08;130088;1262;105472;-72
2024/01/17 03:46:35;;;;;;;38.40;17.80;;;;;;;-4.77;73.02;99370.59;130071;1262;108678;-73
2024/01/17 03:49:41;;;;;;;37.80;17.20;;;;;;;-4.77;72.82;99369.02;130030;1264;106914;-72
2024/01/17 03:52:47;;;;;;;42.20;19.60;;;;;;;-4.78;72.96;99368.36;130065;1262;107505;-73
2024/01/17 03:55:52;;;;;;;43.30;19.50;;;;;;;-4.81;72.72;99376.85;130137;1263;106397;-73
2024/01/17 03:58:58;;;;;;;42.00;18.80;;;;;;;-4.84;72.66;99383.95;130215;1264;108630;-74
2024/01/17 04:02:03;;;;;;;52.50;21.50;;;;;;;-4.90;72.78;99385.10;130045;1266;108397;-73
2024/01/17 04:05:10;;;;;;;45.60;20.00;;;;;;;-4.96;72.74;99382.44;130063;1262;107723;-73
2024/01/17 04:08:15;;;;;;;50.40;22.60;;;;;;;-5.02;72.69;99378.77;130115;1262;106276;-73
2024/01/17 04:11:21;;;;;;;54.10;21.90;;;;;;;-5.12;72.71;99377.66;130104;1264;108600;-74
2024/01/17 04:14:27;;;;;;;49.60;21.30;;;;;;;-5.19;72.82;99382.36;130191;1263;105228;-73
2024/01/17 04:17:32;;;;;;;51.40;23.30;;;;;;;-5.24;72.53;99382.77;130093;1264;106254;-73
2024/01/17 04:20:38;;;;;;;53.70;23.10;;;;;;;-5.31;72.48;99378.26;130147;1263;108716;-72
2024/01/17 04:23:44;;;;;;;92.40;35.20;;;;;;;-5.40;72.48;99380.98;130132;1264;108415;-73
2024/01/17 04:26:50;;;;;;;87.40;35.30;;;;;;;-5.44;72.64;99382.01;130185;1261;107817;-73
2024/01/17 04:29:55;;;;;;;72.80;30.40;;;;;;;-5.47;72.56;99382.55;130094;1263;108318;-73
2024/01/17 04:33:01;;;;;;;51.40;23.40;;;;;;;-5.52;72.54;99376.85;130119;1262;108387;-73
2024/01/17 04:36:07;;;;;;;49.00;21.40;;;;;;;-5.57;72.47;99375.53;130111;1265;108256;-72
2024/01/17 04:39:14;;;;;;;44.70;20.00;;;;;;;-5.60;72.37;99381.41;130106;1264;109421;-73
2024/01/17 04:42:20;;;;;;;42.30;19.30;;;;;;;-5.60;72.73;99378.27;130164;1264;108717;-73
2024/01/17 04:45:27;;;;;;;43.80;19.50;;;;;;;-5.55;72.84;99375.09;130085;1262;108530;-72
2024/01/17 04:48:32;;;;;;;39.00;17.90;;;;;;;-5.48;72.67;99369.06;130109;1262;106692;-72
2024/01/17 04:51:38;;;;;;;38.40;16.90;;;;;;;-5.41;72.75;99364.22;130075;1262;106880;-73
2024/01/17 04:54:44;;;;;;;45.90;20.60;;;;;;;-5.38;72.43;99363.89;130071;1263;106846;-72
2024/01/17 04:57:50;;;;;;;44.10;20.60;;;;;;;-5.39;72.36;99357.34;130139;1262;107641;-74
2024/01/17 05:00:56;;;;;;;45.10;20.30;;;;;;;-5.43;72.23;99354.78;130243;1258;107098;-73
2024/01/17 05:04:02;;;;;;;50.90;20.60;;;;;;;-5.47;72.18;99351.33;130086;1262;107173;-73
2024/01/17 05:07:08;;;;;;;46.70;20.10;;;;;;;-5.51;72.43;99352.02;130143;1265;107034;-73
2024/01/17 05:10:14;;;;;;;50.90;21.30;;;;;;;-5.56;72.21;99349.66;130142;1265;106389;-75
2024/01/17 05:13:20;;;;;;;47.50;21.50;;;;;;;-5.62;72.07;99351.54;130135;1264;106390;-75
2024/01/17 05:16:26;;;;;;;45.70;20.00;;;;;;;-5.70;72.51;99350.50;130134;1262;106219;-75
2024/01/17 05:19:31;;;;;;;46.10;20.40;;;;;;;-5.78;72.32;99351.91;130128;1260;108601;-76
2024/01/17 05:22:39;;;;;;;45.00;19.70;;;;;;;-5.82;72.53;99350.75;130312;1262;108309;-73
2024/01/17 05:25:45;;;;;;;53.50;22.20;;;;;;;-5.86;72.54;99348.84;130120;1264;106555;-73
2024/01/17 05:28:50;;;;;;;46.50;21.50;;;;;;;-5.91;72.53;99349.41;130102;1262;106734;-76
2024/01/17 05:31:56;;;;;;;46.90;21.50;;;;;;;-5.97;72.70;99342.94;130133;1264;106233;-73
2024/01/17 05:35:02;;;;;;;47.90;20.70;;;;;;;-6.00;72.58;99341.52;130172;1264;106939;-74
2024/01/17 05:38:07;;;;;;;49.50;21.20;;;;;;;-6.02;72.77;99344.08;130112;1265;109012;-73
2024/01/17 05:41:13;;;;;;;48.10;20.50;;;;;;;-6.04;72.87;99338.63;130154;1262;108660;-73
2024/01/17 05:44:18;;;;;;;50.90;20.50;;;;;;;-6.08;72.76;99338.47;130054;1263;107695;-75
2024/01/17 05:47:24;;;;;;;48.90;21.20;;;;;;;-6.11;72.71;99338.08;130102;1264;106386;-74
2024/01/17 05:50:30;;;;;;;48.50;20.90;;;;;;;-6.13;72.48;99340.79;130148;1263;107511;-74
2024/01/17 05:53:36;;;;;;;58.10;23.10;;;;;;;-6.17;72.46;99340.45;130154;1260;108852;-75
2024/01/17 05:56:41;;;;;;;55.80;23.20;;;;;;;-6.19;72.75;99337.94;130079;1264;106842;-75
2024/01/17 05:59:47;;;;;;;56.40;22.50;;;;;;;-6.22;72.76;99343.09;130133;1263;107697;-75
2024/01/17 06:02:52;;;;;;;53.70;23.10;;;;;;;-6.27;72.30;99343.48;130100;1265;108876;-73
2024/01/17 06:05:58;;;;;;;56.10;23.00;;;;;;;-6.30;72.57;99347.60;130123;1262;108590;-75
2024/01/17 06:09:05;;;;;;;56.10;24.60;;;;;;;-6.34;72.83;99344.30;130120;1272;106382;-75
2024/01/17 06:12:10;;;;;;;65.10;26.20;;;;;;;-6.35;72.72;99340.56;130173;1262;106390;-76
2024/01/17 06:15:17;;;;;;;90.10;31.30;;;;;;;-6.36;72.55;99335.38;130134;1264;106067;-76
2024/01/17 06:18:23;;;;;;;97.60;31.90;;;;;;;-6.38;72.48;99338.41;130141;1267;108736;-75
2024/01/17 06:21:28;;;;;;;102.90;36.20;;;;;;;-6.39;72.33;99338.83;130166;1262;107273;-75
2024/01/17 06:24:34;;;;;;;62.10;25.30;;;;;;;-6.41;72.10;99343.25;130131;1263;107718;-76
2024/01/17 06:27:40;;;;;;;67.30;25.60;;;;;;;-6.40;71.77;99334.22;130110;1264;106601;-75
2024/01/17 06:30:45;;;;;;;60.40;24.00;;;;;;;-6.36;72.16;99327.95;130068;1263;106949;-74
2024/01/17 06:33:51;;;;;;;70.00;26.50;;;;;;;-6.27;71.96;99320.48;130128;1282;108383;-74
2024/01/17 06:36:57;;;;;;;74.00;26.80;;;;;;;-6.23;71.62;99316.28;130074;1272;106203;-74
2024/01/17 06:40:04;;;;;;;76.30;26.90;;;;;;;-6.17;71.66;99307.88;130141;1263;106664;-75
2024/01/17 06:43:09;;;;;;;67.90;24.90;;;;;;;-6.16;71.73;99305.23;130186;1265;107272;-72
2024/01/17 06:46:15;;;;;;;55.60;22.60;;;;;;;-6.18;71.19;99307.59;130204;1265;106735;-72
2024/01/17 06:49:20;;;;;;;49.70;20.50;;;;;;;-6.19;70.96;99307.45;130121;1265;106394;-72
2024/01/17 06:52:26;;;;;;;47.70;19.60;;;;;;;-6.20;70.84;99300.41;130075;1263;108638;-73
2024/01/17 06:55:32;;;;;;;46.20;19.80;;;;;;;-6.23;70.57;99292.60;130210;1264;107112;-73
2024/01/17 06:58:37;;;;;;;47.50;20.00;;;;;;;-6.24;70.76;99292.83;130166;1265;107479;-73
2024/01/17 07:01:43;;;;;;;50.80;21.80;;;;;;;-6.26;70.58;99296.02;130149;1264;105789;-72
2024/01/17 07:04:48;;;;;;;64.10;26.30;;;;;;;-6.30;70.78;99296.90;130035;1264;107176;-73
2024/01/17 07:07:54;;;;;;;67.50;26.60;;;;;;;-6.34;70.53;99291.51;130139;1263;108437;-73
2024/01/17 07:10:59;;;;;;;56.50;24.30;;;;;;;-6.38;71.11;99290.52;130308;1260;108026;-75
2024/01/17 07:14:05;;;;;;;55.30;23.70;;;;;;;-6.40;71.12;99292.52;130086;1264;106079;-78
2024/01/17 07:17:10;;;;;;;73.20;30.60;;;;;;;-6.42;70.71;99282.89;130253;1268;108864;-78
2024/01/17 07:20:16;;;;;;;76.40;33.00;;;;;;;-6.45;70.84;99277.18;130310;1268;108457;-78
2024/01/17 07:23:22;;;;;;;79.70;39.60;;;;;;;-6.47;70.95;99277.45;130644;1263;108674;-79
2024/01/17 07:26:28;;;;;;;67.80;30.30;;;;;;;-6.45;70.87;99270.77;130366;1263;108147;-79
2024/01/17 07:29:35;;;;;;;73.10;29.00;;;;;;;-6.42;71.13;99263.15;130282;1264;107648;-78
2024/01/17 07:32:40;;;;;;;84.60;34.50;;;;;;;-6.37;71.35;99251.83;130141;1265;106788;-79
2024/01/17 07:35:46;;;;;;;87.40;34.40;;;;;;;-6.33;71.43;99247.68;130151;1264;108631;-77
2024/01/17 07:38:51;;;;;;;79.30;30.60;;;;;;;-6.26;71.57;99241.52;130290;1265;107785;-78
2024/01/17 07:41:57;;;;;;;75.70;29.40;;;;;;;-6.23;71.27;99234.44;130219;1262;107275;-76
2024/01/17 07:45:04;;;;;;;74.60;29.90;;;;;;;-6.18;71.61;99236.95;130139;1263;108607;-77
2024/01/17 07:48:10;;;;;;;71.10;29.50;;;;;;;-6.15;71.82;99233.89;130235;1259;106604;-77
2024/01/17 07:51:17;;;;;;;64.90;27.50;;;;;;;-6.11;71.83;99235.77;130341;1263;106589;-78
2024/01/17 07:54:23;;;;;;;63.70;27.00;;;;;;;-6.05;72.06;99239.14;130104;1264;106590;-78
2024/01/17 07:57:29;;;;;;;64.50;28.10;;;;;;;-5.99;71.99;99239.89;130186;1263;107641;-78
2024/01/17 08:00:35;;;;;;;62.70;28.00;;;;;;;-5.94;72.19;99233.87;130046;1263;106524;-77
2024/01/17 08:03:41;;;;;;;61.10;26.70;;;;;;;-5.87;72.34;99226.30;130374;1263;108787;-81
2024/01/17 08:06:47;;;;;;;65.40;27.90;;;;;;;-5.80;72.27;99222.79;130052;1261;106399;-81
2024/01/17 08:09:53;;;;;;;65.30;28.60;;;;;;;-5.73;72.52;99218.66;130307;1273;107766;-75
2024/01/17 08:12:58;;;;;;;66.40;27.90;;;;;;;-5.65;72.61;99219.48;130126;1264;106293;-77
2024/01/17 08:16:05;;;;;;;61.30;27.50;;;;;;;-5.60;72.54;99217.66;130222;1264;107632;-78
2024/01/17 08:19:11;;;;;;;71.20;29.80;;;;;;;-5.53;72.89;99217.48;130080;1274;107491;-80
2024/01/17 08:22:18;;;;;;;64.60;29.00;;;;;;;-5.45;72.78;99217.25;130174;1264;107686;-77
2024/01/17 08:25:25;;;;;;;63.30;28.40;;;;;;;-5.38;73.03;99214.15;130512;1260;108757;-79
2024/01/17 08:28:31;;;;;;;55.10;26.40;;;;;;;-5.28;73.15;99211.52;130057;1262;106488;-76
2024/01/17 08:31:36;;;;;;;59.00;26.00;;;;;;;-5.12;73.16;99207.23;130110;1274;107246;-79
2024/01/17 08:34:43;;;;;;;55.00;24.40;;;;;;;-4.95;73.31;99200.29;130233;1262;106277;-78
2024/01/17 08:37:48;;;;;;;106.10;43.40;;;;;;;-4.80;73.17;99193.44;130170;1264;106977;-78
2024/01/17 08:40:55;;;;;;;83.10;36.80;;;;;;;-4.65;73.33;99186.38;130152;1262;106629;-78
2024/01/17 08:44:01;;;;;;;75.90;33.20;;;;;;;-4.53;73.33;99177.90;130081;1265;106893;-78
2024/01/17 08:47:07;;;;;;;80.40;39.00;;;;;;;-4.43;73.36;99173.55;130039;1264;109093;-77
2024/01/17 08:50:14;;;;;;;86.60;38.00;;;;;;;-4.39;73.25;99165.31;130173;1264;107965;-77
2024/01/17 08:53:20;;;;;;;68.30;30.80;;;;;;;-4.30;73.53;99158.61;130082;1264;108927;-78
2024/01/17 08:56:26;;;;;;;62.70;28.60;;;;;;;-4.23;73.57;99151.61;130098;1267;106356;-77
2024/01/17 08:59:34;;;;;;;60.10;29.10;;;;;;;-4.19;73.70;99147.52;130102;1272;107115;-81
2024/01/17 09:02:40;;;;;;;58.90;29.20;;;;;;;-4.13;73.72;99138.39;130658;1259;107686;-79
2024/01/17 09:05:46;;;;;;;58.20;27.20;;;;;;;-4.08;73.78;99136.65;130280;1265;107781;-78
2024/01/17 09:08:51;;;;;;;53.90;26.50;;;;;;;-4.02;73.75;99133.74;130220;1264;108575;-79
2024/01/17 09:11:57;;;;;;;52.60;25.00;;;;;;;-4.00;73.87;99126.14;130330;1263;107550;-80
2024/01/17 09:15:04;;;;;;;53.80;26.30;;;;;;;-3.95;73.84;99121.84;130610;1264;107127;-78
2024/01/17 09:18:09;;;;;;;47.90;23.80;;;;;;;-3.90;74.11;99116.05;130083;1265;107746;-76
2024/01/17 09:21:15;;;;;;;44.90;22.40;;;;;;;-3.87;74.26;99110.64;130467;1261;108137;-78
2024/01/17 09:24:21;;;;;;;46.00;23.00;;;;;;;-3.82;73.98;99098.02;130486;1264;107019;-78
2024/01/17 09:27:27;;;;;;;47.40;24.00;;;;;;;-3.78;74.53;99082.11;130220;1264;107654;-78
2024/01/17 09:30:33;;;;;;;50.50;23.70;;;;;;;-3.74;74.31;99070.23;130115;1261;107648;-77
2024/01/17 09:33:39;;;;;;;55.30;25.60;;;;;;;-3.69;74.44;99062.12;130077;1265;107640;-76
2024/01/17 09:36:44;;;;;;;50.70;24.70;;;;;;;-3.67;74.38;99056.61;130561;1272;108371;-77
2024/01/17 09:39:50;;;;;;;52.40;24.20;;;;;;;-3.60;74.48;99040.70;130268;1267;106364;-76
2024/01/17 09:42:57;;;;;;;58.40;24.50;;;;;;;-3.46;74.38;99033.64;130147;1261;107676;-76
2024/01/17 09:46:04;;;;;;;49.70;22.20;;;;;;;-3.29;74.14;99022.33;130146;1263;107654;-77
2024/01/17 09:49:10;;;;;;;58.20;26.10;;;;;;;-3.16;74.16;99012.08;130128;1274;108417;-78
2024/01/17 09:52:18;;;;;;;48.50;25.20;;;;;;;-3.04;74.13;99005.41;130109;1265;108671;-79
2024/01/17 09:55:26;;;;;;;52.20;24.60;;;;;;;-2.93;73.99;98995.64;130194;1265;107741;-78
2024/01/17 09:58:35;;;;;;;47.80;23.60;;;;;;;-2.84;73.83;98993.23;130120;1264;107145;-78
2024/01/17 10:01:41;;;;;;;45.90;23.40;;;;;;;-2.79;73.76;98987.27;130337;1273;108734;-78
2024/01/17 10:04:48;;;;;;;42.30;20.80;;;;;;;-2.74;73.87;98979.64;130157;1268;107420;-85
2024/01/17 10:07:55;;;;;;;44.60;21.50;;;;;;;-2.71;73.77;98981.70;130682;1264;107743;-80
2024/01/17 10:11:01;;;;;;;40.90;20.70;;;;;;;-2.65;73.47;98975.41;130510;1264;107006;-77
2024/01/17 10:14:08;;;;;;;45.00;22.30;;;;;;;-2.62;73.69;98965.83;130421;1261;108547;-78
2024/01/17 10:17:13;;;;;;;42.30;20.80;;;;;;;-2.64;73.45;98951.00;130445;1268;108574;-78
2024/01/17 10:20:19;;;;;;;40.80;20.40;;;;;;;-2.60;73.65;98943.55;130140;1265;106318;-79
2024/01/17 10:23:28;;;;;;;40.30;20.90;;;;;;;-2.51;73.81;98937.58;130138;1261;108664;-79
2024/01/17 10:26:34;;;;;;;42.50;22.70;;;;;;;-2.43;73.45;98931.29;130270;1264;108905;-77
2024/01/17 10:29:41;;;;;;;35.40;18.70;;;;;;;-2.34;73.64;98918.31;130234;1264;107697;-80
2024/01/17 10:32:47;;;;;;;38.10;19.10;;;;;;;-2.22;73.49;98899.89;130311;1263;107710;-81
2024/01/17 10:35:53;;;;;;;36.90;18.50;;;;;;;-2.10;73.38;98888.27;130559;1267;106735;-80
2024/01/17 10:39:04;;;;;;;34.00;17.70;;;;;;;-1.96;73.33;98878.80;130356;1264;108415;-78
2024/01/17 10:42:20;;;;;;;34.00;18.20;;;;;;;-1.84;73.48;98874.61;130177;1264;105396;-79
2024/01/17 10:45:26;;;;;;;33.30;18.00;;;;;;;-1.71;73.24;98867.80;130346;1261;106582;-78
2024/01/17 10:48:31;;;;;;;35.50;18.50;;;;;;;-1.59;73.79;98865.67;130143;1260;108741;-78
2024/01/17 10:51:43;;;;;;;36.40;18.50;;;;;;;-1.43;73.04;98854.98;130135;1267;106827;-79
2024/01/17 10:54:52;;;;;;;34.00;16.90;;;;;;;-1.34;72.89;98846.82;130136;1264;106941;-79
2024/01/17 10:58:00;;;;;;;31.10;16.60;;;;;;;-1.24;72.86;98839.79;130205;1264;107377;-81
2024/01/17 11:01:14;;;;;;;30.80;17.40;;;;;;;-1.16;72.64;98837.66;130853;1272;108491;-80
2024/01/17 11:04:24;;;;;;;33.10;17.30;;;;;;;-1.14;72.40;98828.40;130117;1260;106945;-80
2024/01/17 11:07:31;;;;;;;31.60;17.10;;;;;;;-1.15;72.36;98825.34;130383;1264;106555;-80
2024/01/17 11:10:40;;;;;;;84.40;38.00;;;;;;;-1.17;72.16;98823.91;130831;1259;107498;-79
2024/01/17 11:13:47;;;;;;;71.30;32.90;;;;;;;-1.14;72.41;98818.65;130524;1263;107705;-81
2024/01/17 11:16:54;;;;;;;42.20;20.90;;;;;;;-1.05;72.45;98806.41;130506;1263;108526;-80
2024/01/17 11:20:03;;;;;;;38.70;19.70;;;;;;;-0.95;72.45;98795.59;130360;1260;107573;-79
2024/01/17 11:23:10;;;;;;;37.60;19.20;;;;;;;-0.91;72.30;98784.94;130063;1274;108777;-79
2024/01/17 11:26:33;;;;;;;160.40;68.40;;;;;;;-0.86;72.32;98770.48;130392;1264;108759;-80
2024/01/17 11:29:45;;;;;;;88.80;37.10;;;;;;;-0.82;72.25;98761.38;130278;1265;107710;-80
2024/01/17 11:32:58;;;;;;;64.70;32.30;;;;;;;-0.82;72.41;98756.71;130327;1263;108779;-80
2024/01/17 11:36:05;;;;;;;44.20;23.40;;;;;;;-0.83;72.10;98749.11;130820;1261;108479;-80
2024/01/17 11:39:14;;;;;;;37.70;19.80;;;;;;;-0.78;72.34;98742.79;130552;1261;107230;-80
2024/01/17 11:42:20;;;;;;;33.50;18.30;;;;;;;-0.74;71.98;98745.13;130334;1264;107848;-80
2024/01/17 11:45:26;;;;;;;31.30;17.80;;;;;;;-0.70;71.92;98742.20;130397;1261;108562;-80
2024/01/17 11:48:32;;;;;;;31.10;17.30;;;;;;;-0.68;71.90;98731.54;130706;1261;108665;-83
2024/01/17 11:51:39;;;;;;;34.50;18.10;;;;;;;-0.64;71.74;98731.20;130525;1263;108674;-81
2024/01/17 11:54:46;;;;;;;33.30;18.50;;;;;;;-0.63;71.56;98724.31;130638;1260;106836;-81
2024/01/17 11:57:52;;;;;;;33.20;18.90;;;;;;;-0.60;71.84;98718.32;130699;1260;106416;-83
2024/01/17 12:00:59;;;;;;;40.90;21.00;;;;;;;-0.54;71.95;98705.13;130716;1261;107067;-82
2024/01/17 12:04:11;;;;;;;33.70;19.40;;;;;;;-0.47;71.75;98704.71;130309;1263;107208;-81
2024/01/17 12:07:17;;;;;;;32.80;18.20;;;;;;;-0.38;71.87;98699.15;130524;1260;107530;-81
2024/01/17 12:10:23;;;;;;;35.20;18.40;;;;;;;-0.24;71.78;98696.27;130477;1261;108388;-82
2024/01/17 12:13:28;;;;;;;35.10;19.10;;;;;;;-0.12;71.69;98676.77;130623;1261;106717;-81
2024/01/17 12:16:34;;;;;;;37.40;19.40;;;;;;;-0.08;71.14;98661.95;130868;1260;108669;-80
2024/01/17 12:19:40;;;;;;;34.80;18.90;;;;;;;-0.09;71.31;98657.83;130790;1260;107669;-82
2024/01/17 12:22:50;;;;;;;33.70;18.60;;;;;;;-0.11;71.07;98648.54;130587;1264;106555;-82
2024/01/17 12:25:56;;;;;;;32.30;17.50;;;;;;;-0.11;71.34;98645.39;130594;1264;106431;-81
2024/01/17 12:29:14;;;;;;;32.70;18.00;;;;;;;-0.09;70.81;98642.31;130523;1263;106708;-82
2024/01/17 12:32:19;;;;;;;35.80;18.60;;;;;;;-0.08;71.09;98637.34;130570;1260;108066;-81
2024/01/17 12:35:25;;;;;;;33.50;18.20;;;;;;;-0.07;71.15;98631.98;130514;1263;107756;-81
2024/01/17 12:38:32;;;;;;;33.60;17.80;;;;;;;-0.07;70.91;98627.44;130545;1263;108798;-81
2024/01/17 12:41:38;;;;;;;35.90;18.70;;;;;;;-0.11;70.99;98625.11;130891;1260;108577;-83
2024/01/17 12:44:45;;;;;;;36.30;19.20;;;;;;;-0.11;70.88;98623.27;130605;1261;107752;-81
2024/01/17 12:47:52;;;;;;;35.30;18.70;;;;;;;-0.12;70.87;98613.89;130347;1264;107704;-81
2024/01/17 12:50:59;;;;;;;35.50;18.70;;;;;;;-0.14;70.83;98604.96;131705;1260;108682;-80
2024/01/17 12:54:06;;;;;;;33.60;18.60;;;;;;;-0.14;70.92;98596.06;130402;1263;106946;-82
2024/01/17 12:57:12;;;;;;;37.00;19.50;;;;;;;-0.17;70.89;98583.66;130389;1263;107684;-83
2024/01/17 13:00:20;;;;;;;41.00;21.90;;;;;;;-0.18;70.90;98579.80;130922;1260;107545;-82
2024/01/17 13:03:26;;;;;;;36.40;20.40;;;;;;;-0.22;70.50;98575.74;130582;1260;108781;-81
2024/01/17 13:06:32;;;;;;;39.20;20.20;;;;;;;-0.26;70.57;98574.44;130656;1260;108641;-81
2024/01/17 13:09:37;;;;;;;35.40;19.50;;;;;;;-0.31;70.33;98568.41;130649;1260;108500;-82
2024/01/17 13:12:43;;;;;;;35.60;19.50;;;;;;;-0.37;70.44;98565.44;130953;1261;107241;-82
2024/01/17 13:15:52;;;;;;;34.00;18.30;;;;;;;-0.42;70.57;98559.85;131042;1263;108722;-80
2024/01/17 13:19:01;;;;;;;36.30;19.40;;;;;;;-0.44;70.14;98555.99;131087;1264;107417;-82
2024/01/17 13:22:06;;;;;;;31.90;18.20;;;;;;;-0.52;70.31;98549.34;130580;1264;108591;-82
2024/01/17 13:25:12;;;;;;;34.80;19.00;;;;;;;-0.55;70.11;98545.24;130208;1261;108647;-82
2024/01/17 13:28:18;;;;;;;32.70;17.40;;;;;;;-0.57;70.28;98536.80;130818;1263;107665;-83
2024/01/17 13:31:24;;;;;;;35.60;19.00;;;;;;;-0.59;70.26;98531.06;130482;1264;107391;-82
2024/01/17 13:34:32;;;;;;;39.40;20.00;;;;;;;-0.63;70.06;98517.17;130510;1261;106483;-83
2024/01/17 13:37:41;;;;;;;38.00;20.20;;;;;;;-0.67;70.19;98513.56;130690;1260;106494;-81
2024/01/17 13:40:47;;;;;;;38.40;20.60;;;;;;;-0.73;70.21;98512.48;130881;1261;107694;-81
2024/01/17 13:43:53;;;;;;;41.30;20.70;;;;;;;-0.76;70.05;98512.35;130927;1263;108674;-81
2024/01/17 13:46:58;;;;;;;37.40;19.20;;;;;;;-0.82;69.80;98502.02;130903;1264;107632;-83
2024/01/17 13:50:13;;;;;;;40.50;21.30;;;;;;;-0.89;70.12;98493.83;130962;1264;108772;-81
2024/01/17 13:53:28;;;;;;;44.10;21.70;;;;;;;-0.94;70.10;98489.52;130475;1261;108630;-82
2024/01/17 13:56:34;;;;;;;42.30;21.10;;;;;;;-1.00;70.14;98479.55;130487;1261;108579;-81
2024/01/17 13:59:41;;;;;;;39.50;19.80;;;;;;;-1.07;70.01;98471.54;130443;1260;108556;-81